Terminal Aerodrome Forecast
Issued by NWS

Home | Current Version | Previous Version | Text Only | Print | Product List | Glossary On
Versions: 1 2 3 4 5 6 7 8 9 10 11 12 13 14 15 16 17 18 19 20 21 22 23 24 25 26 27 28 29 30 31
000
FTUS41 KCTP 230926 AAA
TAFJST
TAF AMD
KJST 230926Z 2309/2406 10010G18KT P6SM VCSH OVC008
     FM231100 10012G22KT 3SM -RA BR OVC005
     FM231400 09012G22KT 3/4SM -RA BR OVC003
     FM231700 09015G25KT 1SM RASN OVC003
     FM232300 08014G24KT 3/4SM -SN BR OVC002=

USA.gov is the U.S. government's official web portal to all federal, state and local government web resources and services.